sensor_id;sensor_type;location;lat;lon;timestamp;P1;durP1;ratioP1;P2;durP2;ratioP2
60018;SDS011;45870;42.528;26.740;2023-04-24T00:00:03;20.27;;;11.00;;
60018;SDS011;45870;42.528;26.740;2023-04-24T00:02:34;17.88;;;10.88;;
60018;SDS011;45870;42.528;26.740;2023-04-24T00:05:05;21.95;;;10.35;;
60018;SDS011;45870;42.528;26.740;2023-04-24T00:07:31;22.67;;;11.18;;
60018;SDS011;45870;42.528;26.740;2023-04-24T00:09:57;20.92;;;11.85;;
60018;SDS011;45870;42.528;26.740;2023-04-24T00:12:23;23.25;;;11.75;;
60018;SDS011;45870;42.528;26.740;2023-04-24T00:14:49;19.27;;;11.25;;
60018;SDS011;45870;42.528;26.740;2023-04-24T00:17:15;18.77;;;10.00;;
60018;SDS011;45870;42.528;26.740;2023-04-24T00:19:45;25.80;;;11.10;;
60018;SDS011;45870;42.528;26.740;2023-04-24T00:22:11;21.05;;;10.15;;
60018;SDS011;45870;42.528;26.740;2023-04-24T00:24:38;17.30;;;10.20;;
60018;SDS011;45870;42.528;26.740;2023-04-24T00:27:04;16.90;;;10.65;;
60018;SDS011;45870;42.528;26.740;2023-04-24T00:29:30;17.65;;;9.00;;
60018;SDS011;45870;42.528;26.740;2023-04-24T00:31:56;25.05;;;10.48;;
60018;SDS011;45870;42.528;26.740;2023-04-24T00:34:21;20.38;;;9.80;;
60018;SDS011;45870;42.528;26.740;2023-04-24T00:36:47;13.85;;;9.40;;
60018;SDS011;45870;42.528;26.740;2023-04-24T00:39:17;19.90;;;11.27;;
60018;SDS011;45870;42.528;26.740;2023-04-24T00:41:47;17.52;;;9.63;;
60018;SDS011;45870;42.528;26.740;2023-04-24T00:44:14;18.73;;;8.65;;
60018;SDS011;45870;42.528;26.740;2023-04-24T00:46:40;18.75;;;8.45;;
60018;SDS011;45870;42.528;26.740;2023-04-24T00:49:06;17.20;;;8.75;;
60018;SDS011;45870;42.528;26.740;2023-04-24T00:51:32;24.23;;;9.52;;
60018;SDS011;45870;42.528;26.740;2023-04-24T00:53:59;18.25;;;9.90;;
60018;SDS011;45870;42.528;26.740;2023-04-24T00:56:25;16.60;;;10.18;;
60018;SDS011;45870;42.528;26.740;2023-04-24T00:58:51;19.52;;;11.65;;
60018;SDS011;45870;42.528;26.740;2023-04-24T01:01:18;25.63;;;11.82;;
60018;SDS011;45870;42.528;26.740;2023-04-24T01:03:46;23.50;;;11.05;;
60018;SDS011;45870;42.528;26.740;2023-04-24T01:06:12;15.80;;;10.93;;
60018;SDS011;45870;42.528;26.740;2023-04-24T01:08:39;19.35;;;9.60;;
60018;SDS011;45870;42.528;26.740;2023-04-24T01:11:05;15.45;;;9.32;;
60018;SDS011;45870;42.528;26.740;2023-04-24T01:13:32;17.08;;;9.32;;
60018;SDS011;45870;42.528;26.740;2023-04-24T01:15:58;15.68;;;9.35;;
60018;SDS011;45870;42.528;26.740;2023-04-24T01:18:24;21.80;;;11.18;;
60018;SDS011;45870;42.528;26.740;2023-04-24T01:20:51;19.75;;;10.88;;
60018;SDS011;45870;42.528;26.740;2023-04-24T01:23:19;18.30;;;10.27;;
60018;SDS011;45870;42.528;26.740;2023-04-24T01:25:45;17.08;;;9.63;;
60018;SDS011;45870;42.528;26.740;2023-04-24T01:28:11;16.80;;;11.27;;
60018;SDS011;45870;42.528;26.740;2023-04-24T01:30:39;17.58;;;10.55;;
60018;SDS011;45870;42.528;26.740;2023-04-24T01:33:04;21.20;;;10.88;;
60018;SDS011;45870;42.528;26.740;2023-04-24T01:35:30;18.77;;;9.85;;
60018;SDS011;45870;42.528;26.740;2023-04-24T01:37:56;19.70;;;10.18;;
60018;SDS011;45870;42.528;26.740;2023-04-24T01:40:22;14.30;;;9.23;;
60018;SDS011;45870;42.528;26.740;2023-04-24T01:42:48;16.48;;;9.75;;
60018;SDS011;45870;42.528;26.740;2023-04-24T01:45:14;23.30;;;11.35;;
60018;SDS011;45870;42.528;26.740;2023-04-24T01:47:40;14.82;;;10.27;;
60018;SDS011;45870;42.528;26.740;2023-04-24T01:50:06;24.67;;;11.05;;
60018;SDS011;45870;42.528;26.740;2023-04-24T01:52:32;20.95;;;10.65;;
60018;SDS011;45870;42.528;26.740;2023-04-24T01:55:02;18.15;;;11.02;;
60018;SDS011;45870;42.528;26.740;2023-04-24T01:57:31;15.73;;;8.85;;
60018;SDS011;45870;42.528;26.740;2023-04-24T01:59:57;14.65;;;9.50;;
60018;SDS011;45870;42.528;26.740;2023-04-24T02:02:23;12.77;;;8.45;;
60018;SDS011;45870;42.528;26.740;2023-04-24T02:07:20;15.32;;;9.38;;
60018;SDS011;45870;42.528;26.740;2023-04-24T02:09:46;16.20;;;9.35;;
60018;SDS011;45870;42.528;26.740;2023-04-24T02:12:11;13.75;;;8.98;;
60018;SDS011;45870;42.528;26.740;2023-04-24T02:14:37;18.50;;;9.98;;
60018;SDS011;45870;42.528;26.740;2023-04-24T02:17:03;18.73;;;9.75;;
60018;SDS011;45870;42.528;26.740;2023-04-24T02:19:30;16.80;;;9.95;;
60018;SDS011;45870;42.528;26.740;2023-04-24T02:21:55;17.10;;;9.68;;
60018;SDS011;45870;42.528;26.740;2023-04-24T02:24:21;20.13;;;10.93;;
60018;SDS011;45870;42.528;26.740;2023-04-24T02:26:47;19.95;;;11.25;;
60018;SDS011;45870;42.528;26.740;2023-04-24T02:29:12;19.40;;;12.10;;
60018;SDS011;45870;42.528;26.740;2023-04-24T02:31:38;14.65;;;9.55;;
60018;SDS011;45870;42.528;26.740;2023-04-24T02:34:04;20.95;;;11.07;;
60018;SDS011;45870;42.528;26.740;2023-04-24T02:36:29;18.63;;;10.70;;
60018;SDS011;45870;42.528;26.740;2023-04-24T02:38:55;20.45;;;11.43;;
60018;SDS011;45870;42.528;26.740;2023-04-24T02:41:21;17.85;;;10.52;;
60018;SDS011;45870;42.528;26.740;2023-04-24T02:43:46;18.05;;;10.60;;
60018;SDS011;45870;42.528;26.740;2023-04-24T02:46:12;14.20;;;8.93;;
60018;SDS011;45870;42.528;26.740;2023-04-24T02:48:37;15.98;;;8.57;;
60018;SDS011;45870;42.528;26.740;2023-04-24T02:51:03;15.95;;;9.55;;
60018;SDS011;45870;42.528;26.740;2023-04-24T02:53:29;17.98;;;8.85;;
60018;SDS011;45870;42.528;26.740;2023-04-24T02:55:57;13.95;;;8.77;;
60018;SDS011;45870;42.528;26.740;2023-04-24T02:58:28;16.27;;;9.95;;
60018;SDS011;45870;42.528;26.740;2023-04-24T03:00:54;16.55;;;10.07;;
60018;SDS011;45870;42.528;26.740;2023-04-24T03:03:21;17.58;;;11.07;;
60018;SDS011;45870;42.528;26.740;2023-04-24T03:05:47;17.42;;;10.27;;
60018;SDS011;45870;42.528;26.740;2023-04-24T03:08:12;17.40;;;10.70;;
60018;SDS011;45870;42.528;26.740;2023-04-24T03:10:39;19.83;;;10.23;;
60018;SDS011;45870;42.528;26.740;2023-04-24T03:13:05;22.48;;;10.55;;
60018;SDS011;45870;42.528;26.740;2023-04-24T03:15:31;22.42;;;10.10;;
60018;SDS011;45870;42.528;26.740;2023-04-24T03:17:56;17.10;;;9.73;;
60018;SDS011;45870;42.528;26.740;2023-04-24T03:20:22;19.20;;;9.50;;
60018;SDS011;45870;42.528;26.740;2023-04-24T03:22:48;14.38;;;9.23;;
60018;SDS011;45870;42.528;26.740;2023-04-24T03:25:14;16.40;;;8.93;;
60018;SDS011;45870;42.528;26.740;2023-04-24T03:27:39;13.60;;;9.32;;
60018;SDS011;45870;42.528;26.740;2023-04-24T03:30:06;17.25;;;8.43;;
60018;SDS011;45870;42.528;26.740;2023-04-24T03:32:32;14.88;;;9.00;;
60018;SDS011;45870;42.528;26.740;2023-04-24T03:34:58;13.45;;;8.30;;
60018;SDS011;45870;42.528;26.740;2023-04-24T03:37:24;13.60;;;8.55;;
60018;SDS011;45870;42.528;26.740;2023-04-24T03:39:49;16.67;;;9.55;;
60018;SDS011;45870;42.528;26.740;2023-04-24T03:42:15;14.65;;;9.30;;
60018;SDS011;45870;42.528;26.740;2023-04-24T03:44:41;13.50;;;8.98;;
60018;SDS011;45870;42.528;26.740;2023-04-24T03:47:06;13.52;;;7.80;;
60018;SDS011;45870;42.528;26.740;2023-04-24T03:49:32;12.98;;;6.88;;
60018;SDS011;45870;42.528;26.740;2023-04-24T03:51:57;10.82;;;6.07;;
60018;SDS011;45870;42.528;26.740;2023-04-24T03:54:23;11.20;;;5.70;;
60018;SDS011;45870;42.528;26.740;2023-04-24T03:56:49;12.23;;;5.57;;
60018;SDS011;45870;42.528;26.740;2023-04-24T03:59:15;14.13;;;5.72;;
60018;SDS011;45870;42.528;26.740;2023-04-24T04:01:40;13.32;;;5.78;;
60018;SDS011;45870;42.528;26.740;2023-04-24T04:04:06;23.85;;;6.35;;
60018;SDS011;45870;42.528;26.740;2023-04-24T04:06:33;11.48;;;5.97;;
60018;SDS011;45870;42.528;26.740;2023-04-24T04:08:58;15.30;;;5.63;;
60018;SDS011;45870;42.528;26.740;2023-04-24T04:11:24;9.65;;;4.47;;
60018;SDS011;45870;42.528;26.740;2023-04-24T04:13:50;8.30;;;3.92;;
60018;SDS011;45870;42.528;26.740;2023-04-24T04:16:16;6.15;;;3.78;;
60018;SDS011;45870;42.528;26.740;2023-04-24T04:18:42;6.30;;;3.88;;
60018;SDS011;45870;42.528;26.740;2023-04-24T04:21:08;4.65;;;3.47;;
60018;SDS011;45870;42.528;26.740;2023-04-24T04:23:34;5.82;;;3.33;;
60018;SDS011;45870;42.528;26.740;2023-04-24T04:26:00;6.55;;;3.63;;
60018;SDS011;45870;42.528;26.740;2023-04-24T04:28:26;8.32;;;3.85;;
60018;SDS011;45870;42.528;26.740;2023-04-24T04:30:52;10.38;;;3.60;;
60018;SDS011;45870;42.528;26.740;2023-04-24T04:33:22;8.68;;;3.90;;
60018;SDS011;45870;42.528;26.740;2023-04-24T04:35:49;6.97;;;3.65;;
60018;SDS011;45870;42.528;26.740;2023-04-24T04:38:17;7.40;;;4.03;;
60018;SDS011;45870;42.528;26.740;2023-04-24T04:40:43;9.07;;;3.63;;
60018;SDS011;45870;42.528;26.740;2023-04-24T04:43:10;8.48;;;3.70;;
60018;SDS011;45870;42.528;26.740;2023-04-24T04:45:36;6.88;;;3.70;;
60018;SDS011;45870;42.528;26.740;2023-04-24T04:48:04;4.93;;;3.10;;
60018;SDS011;45870;42.528;26.740;2023-04-24T04:50:32;9.15;;;3.67;;
60018;SDS011;45870;42.528;26.740;2023-04-24T04:52:58;8.85;;;4.18;;
60018;SDS011;45870;42.528;26.740;2023-04-24T04:55:23;14.25;;;6.63;;
60018;SDS011;45870;42.528;26.740;2023-04-24T04:57:50;9.85;;;5.90;;
60018;SDS011;45870;42.528;26.740;2023-04-24T05:00:16;8.70;;;5.68;;
60018;SDS011;45870;42.528;26.740;2023-04-24T05:02:41;11.75;;;5.35;;
60018;SDS011;45870;42.528;26.740;2023-04-24T05:05:07;9.68;;;5.00;;
60018;SDS011;45870;42.528;26.740;2023-04-24T05:07:33;15.50;;;4.63;;
60018;SDS011;45870;42.528;26.740;2023-04-24T05:09:59;6.47;;;4.15;;
60018;SDS011;45870;42.528;26.740;2023-04-24T05:12:25;6.63;;;4.45;;
60018;SDS011;45870;42.528;26.740;2023-04-24T05:14:50;8.13;;;4.70;;
60018;SDS011;45870;42.528;26.740;2023-04-24T05:17:16;9.30;;;5.28;;
60018;SDS011;45870;42.528;26.740;2023-04-24T05:19:42;13.00;;;4.88;;
60018;SDS011;45870;42.528;26.740;2023-04-24T05:22:08;12.27;;;5.03;;
60018;SDS011;45870;42.528;26.740;2023-04-24T05:24:35;7.88;;;4.50;;
60018;SDS011;45870;42.528;26.740;2023-04-24T05:27:02;12.02;;;4.85;;
60018;SDS011;45870;42.528;26.740;2023-04-24T05:29:28;10.20;;;5.05;;
60018;SDS011;45870;42.528;26.740;2023-04-24T05:31:56;9.20;;;4.82;;
60018;SDS011;45870;42.528;26.740;2023-04-24T05:34:22;8.02;;;5.00;;
60018;SDS011;45870;42.528;26.740;2023-04-24T05:36:47;10.38;;;4.63;;
60018;SDS011;45870;42.528;26.740;2023-04-24T05:39:13;11.30;;;4.50;;
60018;SDS011;45870;42.528;26.740;2023-04-24T05:41:40;10.05;;;5.80;;
60018;SDS011;45870;42.528;26.740;2023-04-24T05:44:06;12.82;;;5.72;;
60018;SDS011;45870;42.528;26.740;2023-04-24T05:46:31;11.82;;;5.80;;
60018;SDS011;45870;42.528;26.740;2023-04-24T05:48:57;10.95;;;5.88;;
60018;SDS011;45870;42.528;26.740;2023-04-24T05:51:23;10.23;;;6.07;;
60018;SDS011;45870;42.528;26.740;2023-04-24T05:53:49;9.98;;;6.20;;
60018;SDS011;45870;42.528;26.740;2023-04-24T05:56:15;14.40;;;6.75;;
60018;SDS011;45870;42.528;26.740;2023-04-24T05:58:41;8.43;;;6.15;;
60018;SDS011;45870;42.528;26.740;2023-04-24T06:01:07;13.43;;;6.57;;
60018;SDS011;45870;42.528;26.740;2023-04-24T06:03:32;10.63;;;5.45;;
60018;SDS011;45870;42.528;26.740;2023-04-24T06:05:58;10.27;;;5.50;;
60018;SDS011;45870;42.528;26.740;2023-04-24T06:08:24;8.85;;;5.78;;
60018;SDS011;45870;42.528;26.740;2023-04-24T06:10:50;9.60;;;5.55;;
60018;SDS011;45870;42.528;26.740;2023-04-24T06:13:16;11.43;;;5.13;;
60018;SDS011;45870;42.528;26.740;2023-04-24T06:15:41;8.27;;;5.22;;
60018;SDS011;45870;42.528;26.740;2023-04-24T06:18:08;7.63;;;4.47;;
60018;SDS011;45870;42.528;26.740;2023-04-24T06:20:35;8.98;;;4.40;;
60018;SDS011;45870;42.528;26.740;2023-04-24T06:23:01;9.55;;;4.80;;
60018;SDS011;45870;42.528;26.740;2023-04-24T06:25:27;7.28;;;3.88;;
60018;SDS011;45870;42.528;26.740;2023-04-24T06:27:53;9.30;;;4.70;;
60018;SDS011;45870;42.528;26.740;2023-04-24T06:30:20;7.63;;;4.22;;
60018;SDS011;45870;42.528;26.740;2023-04-24T06:32:46;7.50;;;4.50;;
60018;SDS011;45870;42.528;26.740;2023-04-24T06:35:12;5.50;;;3.30;;
60018;SDS011;45870;42.528;26.740;2023-04-24T06:37:41;8.98;;;4.10;;
60018;SDS011;45870;42.528;26.740;2023-04-24T06:40:08;8.38;;;3.92;;
60018;SDS011;45870;42.528;26.740;2023-04-24T06:42:35;9.80;;;3.28;;
60018;SDS011;45870;42.528;26.740;2023-04-24T06:45:01;10.10;;;3.67;;
60018;SDS011;45870;42.528;26.740;2023-04-24T06:47:26;5.88;;;3.42;;
60018;SDS011;45870;42.528;26.740;2023-04-24T06:49:52;8.98;;;3.65;;
60018;SDS011;45870;42.528;26.740;2023-04-24T06:52:18;9.15;;;3.17;;
60018;SDS011;45870;42.528;26.740;2023-04-24T06:54:44;8.48;;;3.10;;
60018;SDS011;45870;42.528;26.740;2023-04-24T06:57:10;7.40;;;3.10;;
60018;SDS011;45870;42.528;26.740;2023-04-24T06:59:36;11.00;;;3.40;;
60018;SDS011;45870;42.528;26.740;2023-04-24T07:02:02;6.22;;;3.25;;
60018;SDS011;45870;42.528;26.740;2023-04-24T07:04:28;10.43;;;3.53;;
60018;SDS011;45870;42.528;26.740;2023-04-24T07:06:55;6.32;;;3.25;;
60018;SDS011;45870;42.528;26.740;2023-04-24T07:09:21;8.55;;;3.40;;
60018;SDS011;45870;42.528;26.740;2023-04-24T07:11:49;3.70;;;2.80;;
60018;SDS011;45870;42.528;26.740;2023-04-24T07:14:15;8.38;;;3.28;;
60018;SDS011;45870;42.528;26.740;2023-04-24T07:16:41;9.65;;;3.50;;
60018;SDS011;45870;42.528;26.740;2023-04-24T07:19:07;8.25;;;3.03;;
60018;SDS011;45870;42.528;26.740;2023-04-24T07:21:33;9.63;;;3.78;;
60018;SDS011;45870;42.528;26.740;2023-04-24T07:23:59;8.13;;;3.10;;
60018;SDS011;45870;42.528;26.740;2023-04-24T07:26:25;4.40;;;2.70;;
60018;SDS011;45870;42.528;26.740;2023-04-24T07:28:52;5.82;;;2.75;;
60018;SDS011;45870;42.528;26.740;2023-04-24T07:31:17;7.03;;;3.22;;
60018;SDS011;45870;42.528;26.740;2023-04-24T07:33:43;5.15;;;2.60;;
60018;SDS011;45870;42.528;26.740;2023-04-24T07:36:09;6.78;;;3.20;;
60018;SDS011;45870;42.528;26.740;2023-04-24T07:38:43;6.97;;;2.72;;
60018;SDS011;45870;42.528;26.740;2023-04-24T07:41:08;6.57;;;2.58;;
60018;SDS011;45870;42.528;26.740;2023-04-24T07:43:34;6.85;;;2.90;;
60018;SDS011;45870;42.528;26.740;2023-04-24T07:46:00;6.32;;;2.78;;
60018;SDS011;45870;42.528;26.740;2023-04-24T07:48:26;5.47;;;2.65;;
60018;SDS011;45870;42.528;26.740;2023-04-24T07:50:52;7.03;;;3.03;;
60018;SDS011;45870;42.528;26.740;2023-04-24T07:53:18;8.02;;;3.17;;
60018;SDS011;45870;42.528;26.740;2023-04-24T07:55:44;4.70;;;2.20;;
60018;SDS011;45870;42.528;26.740;2023-04-24T07:58:10;5.40;;;2.10;;
60018;SDS011;45870;42.528;26.740;2023-04-24T08:00:35;5.10;;;2.00;;
60018;SDS011;45870;42.528;26.740;2023-04-24T08:03:01;7.18;;;2.50;;
60018;SDS011;45870;42.528;26.740;2023-04-24T08:05:27;5.30;;;1.77;;
60018;SDS011;45870;42.528;26.740;2023-04-24T08:07:53;4.55;;;1.92;;
60018;SDS011;45870;42.528;26.740;2023-04-24T08:10:21;5.82;;;2.10;;
60018;SDS011;45870;42.528;26.740;2023-04-24T08:12:48;6.85;;;2.15;;
60018;SDS011;45870;42.528;26.740;2023-04-24T08:15:13;5.50;;;2.10;;
60018;SDS011;45870;42.528;26.740;2023-04-24T08:17:39;4.82;;;2.30;;
60018;SDS011;45870;42.528;26.740;2023-04-24T08:20:05;4.22;;;1.90;;
60018;SDS011;45870;42.528;26.740;2023-04-24T08:22:35;5.10;;;2.10;;
60018;SDS011;45870;42.528;26.740;2023-04-24T08:25:01;9.82;;;1.90;;
60018;SDS011;45870;42.528;26.740;2023-04-24T08:27:26;3.33;;;1.83;;
60018;SDS011;45870;42.528;26.740;2023-04-24T08:29:54;8.35;;;2.25;;
60018;SDS011;45870;42.528;26.740;2023-04-24T08:32:19;7.53;;;2.03;;
60018;SDS011;45870;42.528;26.740;2023-04-24T08:34:45;5.35;;;2.20;;
60018;SDS011;45870;42.528;26.740;2023-04-24T08:37:11;5.47;;;1.83;;
60018;SDS011;45870;42.528;26.740;2023-04-24T08:39:37;6.18;;;1.65;;
60018;SDS011;45870;42.528;26.740;2023-04-24T08:42:04;6.28;;;2.00;;
60018;SDS011;45870;42.528;26.740;2023-04-24T08:44:33;8.68;;;2.33;;
60018;SDS011;45870;42.528;26.740;2023-04-24T08:47:00;5.05;;;1.80;;
60018;SDS011;45870;42.528;26.740;2023-04-24T08:49:27;9.30;;;2.67;;
60018;SDS011;45870;42.528;26.740;2023-04-24T08:51:53;6.15;;;2.30;;
60018;SDS011;45870;42.528;26.740;2023-04-24T08:54:19;8.68;;;2.63;;
60018;SDS011;45870;42.528;26.740;2023-04-24T08:56:46;5.57;;;2.08;;
60018;SDS011;45870;42.528;26.740;2023-04-24T08:59:16;7.18;;;1.90;;
60018;SDS011;45870;42.528;26.740;2023-04-24T09:01:43;3.83;;;2.03;;
60018;SDS011;45870;42.528;26.740;2023-04-24T09:04:13;4.65;;;1.95;;
60018;SDS011;45870;42.528;26.740;2023-04-24T09:06:41;5.78;;;2.28;;
60018;SDS011;45870;42.528;26.740;2023-04-24T09:09:07;5.30;;;2.22;;
60018;SDS011;45870;42.528;26.740;2023-04-24T09:11:35;6.30;;;2.10;;
60018;SDS011;45870;42.528;26.740;2023-04-24T09:14:02;6.65;;;2.22;;
60018;SDS011;45870;42.528;26.740;2023-04-24T09:16:29;5.45;;;1.98;;
60018;SDS011;45870;42.528;26.740;2023-04-24T09:18:55;3.72;;;2.20;;
60018;SDS011;45870;42.528;26.740;2023-04-24T09:21:21;6.90;;;2.10;;
60018;SDS011;45870;42.528;26.740;2023-04-24T09:23:57;5.28;;;2.13;;
60018;SDS011;45870;42.528;26.740;2023-04-24T09:26:24;5.65;;;2.08;;
60018;SDS011;45870;42.528;26.740;2023-04-24T09:28:50;3.33;;;2.20;;
60018;SDS011;45870;42.528;26.740;2023-04-24T09:31:18;5.18;;;2.00;;
60018;SDS011;45870;42.528;26.740;2023-04-24T09:33:53;5.30;;;2.40;;
60018;SDS011;45870;42.528;26.740;2023-04-24T09:38:59;8.85;;;2.97;;
60018;SDS011;45870;42.528;26.740;2023-04-24T09:41:29;7.32;;;2.42;;
60018;SDS011;45870;42.528;26.740;2023-04-24T09:43:58;6.70;;;2.30;;
60018;SDS011;45870;42.528;26.740;2023-04-24T09:46:36;6.18;;;2.28;;
60018;SDS011;45870;42.528;26.740;2023-04-24T09:49:10;6.40;;;2.80;;
60018;SDS011;45870;42.528;26.740;2023-04-24T09:51:38;6.78;;;2.53;;
60018;SDS011;45870;42.528;26.740;2023-04-24T09:54:11;7.50;;;2.55;;
60018;SDS011;45870;42.528;26.740;2023-04-24T09:56:41;5.07;;;2.45;;
60018;SDS011;45870;42.528;26.740;2023-04-24T09:59:09;6.35;;;2.30;;
60018;SDS011;45870;42.528;26.740;2023-04-24T10:01:34;5.70;;;2.30;;
60018;SDS011;45870;42.528;26.740;2023-04-24T10:04:01;4.47;;;2.17;;
60018;SDS011;45870;42.528;26.740;2023-04-24T10:06:33;8.30;;;2.72;;
60018;SDS011;45870;42.528;26.740;2023-04-24T10:09:00;4.15;;;2.30;;
60018;SDS011;45870;42.528;26.740;2023-04-24T10:11:29;5.20;;;2.20;;
60018;SDS011;45870;42.528;26.740;2023-04-24T10:13:55;6.03;;;2.33;;
60018;SDS011;45870;42.528;26.740;2023-04-24T10:16:22;4.43;;;2.38;;
60018;SDS011;45870;42.528;26.740;2023-04-24T10:18:49;7.85;;;2.40;;
60018;SDS011;45870;42.528;26.740;2023-04-24T10:21:15;6.53;;;2.55;;
60018;SDS011;45870;42.528;26.740;2023-04-24T10:23:42;5.28;;;2.58;;
60018;SDS011;45870;42.528;26.740;2023-04-24T10:26:12;5.07;;;2.20;;
60018;SDS011;45870;42.528;26.740;2023-04-24T10:28:44;3.83;;;2.40;;
60018;SDS011;45870;42.528;26.740;2023-04-24T10:31:11;8.48;;;2.53;;
60018;SDS011;45870;42.528;26.740;2023-04-24T10:33:38;5.07;;;2.90;;
60018;SDS011;45870;42.528;26.740;2023-04-24T10:36:06;7.40;;;2.80;;
60018;SDS011;45870;42.528;26.740;2023-04-24T10:38:35;5.60;;;2.63;;
60018;SDS011;45870;42.528;26.740;2023-04-24T10:41:09;5.50;;;2.13;;
60018;SDS011;45870;42.528;26.740;2023-04-24T10:43:41;4.95;;;2.55;;
60018;SDS011;45870;42.528;26.740;2023-04-24T10:46:07;6.70;;;2.25;;
60018;SDS011;45870;42.528;26.740;2023-04-24T10:48:35;6.80;;;2.50;;
60018;SDS011;45870;42.528;26.740;2023-04-24T10:51:10;6.57;;;2.42;;
60018;SDS011;45870;42.528;26.740;2023-04-24T10:53:37;4.55;;;2.40;;
60018;SDS011;45870;42.528;26.740;2023-04-24T10:56:03;8.80;;;2.75;;
60018;SDS011;45870;42.528;26.740;2023-04-24T10:58:37;4.95;;;2.58;;
60018;SDS011;45870;42.528;26.740;2023-04-24T11:01:05;5.45;;;2.60;;
60018;SDS011;45870;42.528;26.740;2023-04-24T11:03:32;4.07;;;2.47;;
60018;SDS011;45870;42.528;26.740;2023-04-24T11:06:03;5.38;;;2.50;;
60018;SDS011;45870;42.528;26.740;2023-04-24T11:08:31;6.30;;;2.70;;
60018;SDS011;45870;42.528;26.740;2023-04-24T11:16:20;8.10;;;3.20;;
60018;SDS011;45870;42.528;26.740;2023-04-24T11:18:52;7.88;;;2.88;;
60018;SDS011;45870;42.528;26.740;2023-04-24T11:21:25;5.18;;;2.53;;
60018;SDS011;45870;42.528;26.740;2023-04-24T11:23:56;7.68;;;2.40;;
60018;SDS011;45870;42.528;26.740;2023-04-24T11:26:22;8.13;;;2.70;;
60018;SDS011;45870;42.528;26.740;2023-04-24T11:28:51;4.40;;;2.50;;
60018;SDS011;45870;42.528;26.740;2023-04-24T11:34:13;5.63;;;2.63;;
60018;SDS011;45870;42.528;26.740;2023-04-24T11:36:40;4.45;;;2.50;;
60018;SDS011;45870;42.528;26.740;2023-04-24T11:39:08;8.90;;;2.65;;
60018;SDS011;45870;42.528;26.740;2023-04-24T11:41:36;5.53;;;2.80;;
60018;SDS011;45870;42.528;26.740;2023-04-24T11:44:02;6.57;;;3.05;;
60018;SDS011;45870;42.528;26.740;2023-04-24T11:46:30;5.35;;;2.50;;
60018;SDS011;45870;42.528;26.740;2023-04-24T11:48:56;9.45;;;2.63;;
60018;SDS011;45870;42.528;26.740;2023-04-24T11:51:23;6.60;;;2.75;;
60018;SDS011;45870;42.528;26.740;2023-04-24T11:53:50;4.85;;;2.70;;
60018;SDS011;45870;42.528;26.740;2023-04-24T11:56:21;4.40;;;2.53;;
60018;SDS011;45870;42.528;26.740;2023-04-24T11:58:47;4.22;;;2.45;;
60018;SDS011;45870;42.528;26.740;2023-04-24T12:01:13;5.35;;;2.60;;
60018;SDS011;45870;42.528;26.740;2023-04-24T12:03:39;6.07;;;2.50;;
60018;SDS011;45870;42.528;26.740;2023-04-24T12:06:08;5.13;;;2.45;;
60018;SDS011;45870;42.528;26.740;2023-04-24T12:08:35;7.78;;;3.10;;
60018;SDS011;45870;42.528;26.740;2023-04-24T12:11:02;3.63;;;2.55;;
60018;SDS011;45870;42.528;26.740;2023-04-24T12:13:29;4.43;;;2.67;;
60018;SDS011;45870;42.528;26.740;2023-04-24T12:15:59;6.95;;;2.60;;
60018;SDS011;45870;42.528;26.740;2023-04-24T12:18:26;4.85;;;2.50;;
60018;SDS011;45870;42.528;26.740;2023-04-24T12:20:52;5.82;;;2.50;;
60018;SDS011;45870;42.528;26.740;2023-04-24T12:23:33;4.57;;;2.50;;
60018;SDS011;45870;42.528;26.740;2023-04-24T12:26:00;5.25;;;2.45;;
60018;SDS011;45870;42.528;26.740;2023-04-24T12:28:34;7.55;;;2.40;;
60018;SDS011;45870;42.528;26.740;2023-04-24T12:31:01;5.97;;;2.90;;
60018;SDS011;45870;42.528;26.740;2023-04-24T12:33:27;4.32;;;2.20;;
60018;SDS011;45870;42.528;26.740;2023-04-24T12:35:53;5.82;;;2.20;;
60018;SDS011;45870;42.528;26.740;2023-04-24T12:38:24;6.00;;;2.45;;
60018;SDS011;45870;42.528;26.740;2023-04-24T12:41:04;6.60;;;2.45;;
60018;SDS011;45870;42.528;26.740;2023-04-24T12:43:32;8.13;;;2.70;;
60018;SDS011;45870;42.528;26.740;2023-04-24T12:45:58;5.07;;;2.70;;
60018;SDS011;45870;42.528;26.740;2023-04-24T12:48:25;5.35;;;2.50;;
60018;SDS011;45870;42.528;26.740;2023-04-24T12:50:51;3.78;;;2.40;;
60018;SDS011;45870;42.528;26.740;2023-04-24T12:53:17;5.30;;;2.30;;
60018;SDS011;45870;42.528;26.740;2023-04-24T12:55:43;4.85;;;2.50;;
60018;SDS011;45870;42.528;26.740;2023-04-24T12:58:10;3.50;;;2.53;;
60018;SDS011;45870;42.528;26.740;2023-04-24T13:00:36;5.40;;;2.40;;
60018;SDS011;45870;42.528;26.740;2023-04-24T13:03:02;5.82;;;2.40;;
60018;SDS011;45870;42.528;26.740;2023-04-24T13:05:29;9.05;;;2.47;;
60018;SDS011;45870;42.528;26.740;2023-04-24T13:07:56;3.55;;;2.22;;
60018;SDS011;45870;42.528;26.740;2023-04-24T13:10:22;5.82;;;2.53;;
60018;SDS011;45870;42.528;26.740;2023-04-24T13:12:48;6.22;;;2.58;;
60018;SDS011;45870;42.528;26.740;2023-04-24T13:15:15;4.47;;;2.50;;
60018;SDS011;45870;42.528;26.740;2023-04-24T13:17:41;5.20;;;2.40;;
60018;SDS011;45870;42.528;26.740;2023-04-24T13:20:06;6.13;;;2.58;;
60018;SDS011;45870;42.528;26.740;2023-04-24T13:22:32;6.07;;;2.97;;
60018;SDS011;45870;42.528;26.740;2023-04-24T13:24:58;4.22;;;2.42;;
60018;SDS011;45870;42.528;26.740;2023-04-24T13:27:24;7.60;;;2.58;;
60018;SDS011;45870;42.528;26.740;2023-04-24T13:29:50;5.07;;;2.70;;
60018;SDS011;45870;42.528;26.740;2023-04-24T13:32:16;5.80;;;3.08;;
60018;SDS011;45870;42.528;26.740;2023-04-24T13:34:42;5.75;;;3.20;;
60018;SDS011;45870;42.528;26.740;2023-04-24T13:37:08;6.72;;;3.67;;
60018;SDS011;45870;42.528;26.740;2023-04-24T13:39:33;6.15;;;3.30;;
60018;SDS011;45870;42.528;26.740;2023-04-24T13:42:00;7.43;;;3.22;;
60018;SDS011;45870;42.528;26.740;2023-04-24T13:44:25;6.80;;;3.35;;
60018;SDS011;45870;42.528;26.740;2023-04-24T13:46:54;6.78;;;3.38;;
60018;SDS011;45870;42.528;26.740;2023-04-24T13:49:22;7.20;;;3.67;;
60018;SDS011;45870;42.528;26.740;2023-04-24T13:51:50;6.38;;;3.53;;
60018;SDS011;45870;42.528;26.740;2023-04-24T13:54:16;10.20;;;3.60;;
60018;SDS011;45870;42.528;26.740;2023-04-24T13:56:42;7.22;;;3.80;;
60018;SDS011;45870;42.528;26.740;2023-04-24T13:59:08;7.45;;;3.58;;
60018;SDS011;45870;42.528;26.740;2023-04-24T14:01:34;5.22;;;3.35;;
60018;SDS011;45870;42.528;26.740;2023-04-24T14:03:59;4.20;;;3.35;;
60018;SDS011;45870;42.528;26.740;2023-04-24T14:06:25;6.35;;;3.35;;
60018;SDS011;45870;42.528;26.740;2023-04-24T14:08:51;8.95;;;3.58;;
60018;SDS011;45870;42.528;26.740;2023-04-24T14:11:17;7.25;;;3.65;;
60018;SDS011;45870;42.528;26.740;2023-04-24T14:13:44;6.57;;;3.60;;
60018;SDS011;45870;42.528;26.740;2023-04-24T14:16:10;8.30;;;3.60;;
60018;SDS011;45870;42.528;26.740;2023-04-24T14:18:36;4.03;;;3.30;;
60018;SDS011;45870;42.528;26.740;2023-04-24T14:21:02;4.95;;;3.40;;
60018;SDS011;45870;42.528;26.740;2023-04-24T14:23:28;6.35;;;3.10;;
60018;SDS011;45870;42.528;26.740;2023-04-24T14:25:54;9.25;;;3.63;;
60018;SDS011;45870;42.528;26.740;2023-04-24T14:28:20;8.68;;;3.45;;
60018;SDS011;45870;42.528;26.740;2023-04-24T14:30:46;4.93;;;3.47;;
60018;SDS011;45870;42.528;26.740;2023-04-24T14:33:13;4.88;;;3.55;;
60018;SDS011;45870;42.528;26.740;2023-04-24T14:35:40;6.60;;;3.63;;
60018;SDS011;45870;42.528;26.740;2023-04-24T14:38:09;8.73;;;3.70;;